Time;durP1;ratioP1;P1;durP2;ratioP2;P2;SDS_P1;SDS_P2;PMS_P1;PMS_P2;Temp;Humidity;BMP_temperature;BMP_pressure;BME280_temperature;BME280_humidity;BME280_pressure;Samples;Min_cycle;Max_cycle;Signal;HPM_P1;HPM_P2
2023/02/09 00:02:16;;;;;;;19.00;12.10;;;;;;;-0.92;56.44;104191.95;106848;1273;25508;-58
2023/02/09 00:04:45;;;;;;;16.00;11.00;;;;;;;-0.94;56.41;104188.89;106960;1270;25374;-58
2023/02/09 00:07:13;;;;;;;17.60;10.80;;;;;;;-0.94;56.60;104188.00;106971;1271;25334;-58
2023/02/09 00:09:44;;;;;;;20.00;12.10;;;;;;;-0.94;56.53;104184.66;106154;1273;1003540;-58
2023/02/09 00:15:00;;;;;;;20.80;11.30;;;;;;;-0.97;56.43;104182.37;106863;1270;25366;-58
2023/02/09 00:17:32;;;;;;;17.00;10.00;;;;;;;-0.97;56.50;104185.61;106925;1270;25380;-58
2023/02/09 00:20:01;;;;;;;18.10;11.30;;;;;;;-0.97;56.58;104185.25;106879;1269;22551;-59
2023/02/09 00:22:29;;;;;;;16.40;10.50;;;;;;;-0.97;56.61;104184.37;106955;1268;24404;-59
2023/02/09 00:24:58;;;;;;;18.70;11.20;;;;;;;-0.98;56.60;104185.36;107019;1269;25362;-59
2023/02/09 00:27:27;;;;;;;17.20;10.90;;;;;;;-0.99;56.50;104187.08;106756;1270;22535;-61
2023/02/09 00:29:55;;;;;;;20.20;12.10;;;;;;;-1.02;56.45;104183.34;105980;1270;1002904;-58
2023/02/09 00:32:24;;;;;;;15.90;10.80;;;;;;;-1.04;56.30;104183.98;106802;1276;25338;-60
2023/02/09 00:34:52;;;;;;;18.20;11.70;;;;;;;-1.07;56.50;104185.25;106831;1273;25358;-60
2023/02/09 00:37:21;;;;;;;17.90;10.80;;;;;;;-1.10;56.60;104183.48;106090;1269;1003366;-59
2023/02/09 00:39:49;;;;;;;16.70;10.40;;;;;;;-1.15;56.72;104180.73;106851;1269;25377;-60
2023/02/09 00:42:19;;;;;;;19.40;11.10;;;;;;;-1.19;56.56;104186.30;106852;1269;26526;-59
2023/02/09 00:44:48;;;;;;;18.50;11.80;;;;;;;-1.24;56.48;104187.31;106915;1271;25327;-60
2023/02/09 00:47:16;;;;;;;15.60;10.70;;;;;;;-1.26;56.72;104188.63;106831;1270;25355;-60
2023/02/09 00:49:45;;;;;;;17.00;11.30;;;;;;;-1.28;56.69;104187.65;106793;1270;25375;-59
2023/02/09 00:52:13;;;;;;;15.60;11.10;;;;;;;-1.30;56.88;104190.73;106829;1269;25368;-60
2023/02/09 00:54:42;;;;;;;18.30;10.70;;;;;;;-1.32;56.58;104191.02;106879;1269;25360;-60
2023/02/09 00:57:10;;;;;;;19.40;11.60;;;;;;;-1.35;56.67;104184.55;106803;1270;22538;-59
2023/02/09 00:59:41;;;;;;;20.30;12.40;;;;;;;-1.37;56.96;104181.81;106750;1273;22531;-60
2023/02/09 01:02:09;;;;;;;19.80;11.60;;;;;;;-1.38;57.04;104179.50;106112;1269;1002858;-61
2023/02/09 01:04:39;;;;;;;18.40;12.00;;;;;;;-1.40;56.88;104174.89;106887;1268;23124;-59
2023/02/09 01:07:08;;;;;;;17.30;11.20;;;;;;;-1.44;56.89;104170.54;106815;1260;22573;-60
2023/02/09 01:09:36;;;;;;;17.10;11.20;;;;;;;-1.48;56.88;104171.05;106703;1274;25380;-59
2023/02/09 01:12:11;;;;;;;17.50;11.20;;;;;;;-1.52;56.85;104168.50;106040;1261;1002566;-59
2023/02/09 01:14:39;;;;;;;18.70;11.40;;;;;;;-1.54;56.92;104163.86;106909;1270;23914;-59
2023/02/09 01:17:08;;;;;;;18.40;11.90;;;;;;;-1.57;57.14;104164.45;106192;1270;1003686;-60
2023/02/09 01:19:36;;;;;;;19.50;12.20;;;;;;;-1.59;56.74;104162.45;106242;1270;1003239;-59
2023/02/09 01:22:05;;;;;;;16.70;10.60;;;;;;;-1.63;56.96;104158.92;106942;1270;25355;-59
2023/02/09 01:24:35;;;;;;;22.10;11.90;;;;;;;-1.66;56.84;104155.98;106615;1270;319605;-60
2023/02/09 01:27:04;;;;;;;18.90;12.60;;;;;;;-1.69;56.91;104154.88;106143;1268;1003357;-59
2023/02/09 01:29:33;;;;;;;19.00;11.80;;;;;;;-1.72;56.90;104155.33;106765;1270;23379;-59
2023/02/09 01:32:01;;;;;;;17.10;10.80;;;;;;;-1.72;57.22;104156.02;106839;1269;25366;-59
2023/02/09 01:34:31;;;;;;;18.00;12.10;;;;;;;-1.73;56.85;104158.96;106959;1268;22534;-59
2023/02/09 01:36:59;;;;;;;21.40;12.30;;;;;;;-1.75;56.94;104159.45;106851;1269;22526;-59
2023/02/09 01:39:28;;;;;;;18.60;11.20;;;;;;;-1.78;57.18;104154.64;106859;1268;23869;-59
2023/02/09 01:41:56;;;;;;;17.40;12.00;;;;;;;-1.80;57.40;104154.15;106982;1269;25415;-59
2023/02/09 01:44:24;;;;;;;20.50;12.00;;;;;;;-1.80;57.22;104153.55;106788;1269;25338;-59
2023/02/09 01:46:53;;;;;;;18.10;11.30;;;;;;;-1.81;57.29;104151.51;106838;1269;25367;-60
2023/02/09 01:49:26;;;;;;;16.40;11.00;;;;;;;-1.82;57.34;104149.73;106872;1270;25524;-61
2023/02/09 01:51:57;;;;;;;21.60;12.10;;;;;;;-1.82;57.41;104150.35;106054;1276;1003058;-60
2023/02/09 01:54:36;;;;;;;18.70;11.70;;;;;;;-1.84;57.34;104145.77;106956;1270;22533;-59
2023/02/09 01:57:07;;;;;;;19.30;11.40;;;;;;;-1.85;57.53;104141.41;106043;1273;1002869;-59
2023/02/09 01:59:37;;;;;;;18.10;11.90;;;;;;;-1.86;57.54;104144.62;106144;1270;1002989;-59
2023/02/09 02:02:06;;;;;;;18.60;11.80;;;;;;;-1.87;57.53;104149.62;106808;1273;22526;-58
2023/02/09 02:04:35;;;;;;;19.00;12.00;;;;;;;-1.89;57.67;104148.60;106863;1270;25415;-58
2023/02/09 02:07:34;;;;;;;18.20;12.20;;;;;;;-1.90;57.94;104150.59;106813;1270;24410;-58
2023/02/09 02:10:03;;;;;;;17.40;11.50;;;;;;;-1.89;57.90;104155.59;105654;1276;1003802;-58
2023/02/09 02:12:32;;;;;;;19.30;11.90;;;;;;;-1.87;57.77;104159.98;106155;1275;22551;-58
2023/02/09 02:15:01;;;;;;;18.40;11.20;;;;;;;-1.87;57.75;104160.13;106132;1277;22636;-58
2023/02/09 02:17:39;;;;;;;18.30;11.30;;;;;;;-1.86;57.62;104161.44;105588;1277;1018140;-58
2023/02/09 02:20:40;;;;;;;19.60;12.00;;;;;;;-1.87;57.49;104159.46;106325;1276;25402;-58
2023/02/09 02:23:09;;;;;;;18.70;11.40;;;;;;;-1.90;57.54;104159.95;105936;1283;25556;-59
2023/02/09 02:26:02;;;;;;;17.80;11.50;;;;;;;-1.91;57.65;104154.42;105906;1268;22552;-60
2023/02/09 02:28:57;;;;;;;16.70;10.60;;;;;;;-1.91;57.60;104163.56;105917;1283;22698;-58
2023/02/09 02:31:49;;;;;;;19.50;11.50;;;;;;;-1.92;57.74;104162.66;105849;1283;25442;-58
2023/02/09 02:34:36;;;;;;;;;;;;;;;-1.93;57.45;104168.83;105145;1284;1003246;-58
2023/02/09 02:37:37;;;;;;;17.90;11.20;;;;;;;-1.96;57.57;104173.02;105133;1283;1003821;-61
2023/02/09 02:40:24;;;;;;;16.90;11.10;;;;;;;-1.98;57.43;104174.55;105699;1283;22535;-58
2023/02/09 02:43:17;;;;;;;19.90;11.10;;;;;;;-2.02;57.37;104174.91;105724;1286;25380;-57
2023/02/09 02:46:01;;;;;;;16.90;11.00;;;;;;;-2.04;57.53;104177.45;105805;1282;25344;-57
2023/02/09 02:48:39;;;;;;;19.20;11.70;;;;;;;-2.06;57.49;104173.00;106149;1283;22765;-57
2023/02/09 02:51:12;;;;;;;15.50;11.20;;;;;;;-2.09;57.50;104168.20;105538;1279;1003321;-57
2023/02/09 02:53:42;;;;;;;18.20;11.80;;;;;;;-2.11;57.57;104164.75;105636;1279;1003411;-57
2023/02/09 02:56:31;;;;;;;18.60;12.00;;;;;;;-2.12;57.48;104161.14;105732;1285;22545;-57
2023/02/09 02:59:01;;;;;;;17.40;10.60;;;;;;;-2.12;57.78;104162.98;106181;1276;25349;-57
2023/02/09 03:01:32;;;;;;;19.00;12.60;;;;;;;-2.13;57.47;104161.91;106791;1268;24331;-57
2023/02/09 03:04:01;;;;;;;;;;;;;;;-2.13;57.65;104162.71;106927;1268;22527;-57
2023/02/09 03:06:31;;;;;;;17.50;10.70;;;;;;;-2.13;57.67;104163.29;106157;1270;1002952;-57
2023/02/09 03:09:00;;;;;;;20.10;11.60;;;;;;;-2.13;57.77;104161.20;106805;1268;25500;-57
2023/02/09 03:11:40;;;;;;;20.40;11.20;;;;;;;-2.13;57.60;104155.63;106179;1268;1003405;-57
2023/02/09 03:14:41;;;;;;;19.10;11.70;;;;;;;-2.13;57.91;104160.55;106051;1266;1003510;-58
2023/02/09 03:17:28;;;;;;;19.30;11.60;;;;;;;-2.14;57.81;104157.91;106086;1274;1002984;-57
2023/02/09 03:20:06;;;;;;;16.00;11.30;;;;;;;-2.15;57.76;104152.99;106764;1273;25521;-57
2023/02/09 03:22:37;;;;;;;20.90;12.10;;;;;;;-2.18;57.70;104151.11;106854;1268;24224;-57
2023/02/09 03:25:07;;;;;;;19.60;11.20;;;;;;;-2.20;57.92;104152.30;106869;1270;24230;-57
2023/02/09 03:27:51;;;;;;;18.10;10.90;;;;;;;-2.21;57.98;104151.66;106869;1270;22531;-57
2023/02/09 03:30:20;;;;;;;17.30;11.50;;;;;;;-2.23;57.88;104152.00;106042;1268;1003564;-57
2023/02/09 03:32:49;;;;;;;18.80;11.40;;;;;;;-2.24;57.83;104159.04;106801;1269;25362;-58
2023/02/09 03:35:18;;;;;;;21.40;11.60;;;;;;;-2.26;58.04;104158.75;106042;1268;1003494;-57
2023/02/09 03:37:46;;;;;;;17.30;11.40;;;;;;;-2.26;57.87;104163.15;105973;1270;1003681;-57
2023/02/09 03:40:15;;;;;;;20.60;12.20;;;;;;;-2.27;57.89;104164.08;106803;1253;25368;-58
2023/02/09 03:42:44;;;;;;;18.10;10.90;;;;;;;-2.28;57.77;104165.90;106793;1273;25355;-57
2023/02/09 03:45:13;;;;;;;17.50;10.70;;;;;;;-2.28;57.89;104168.91;106800;1268;22620;-57
2023/02/09 03:47:41;;;;;;;14.60;10.30;;;;;;;-2.27;58.05;104168.83;106818;1271;25352;-58
2023/02/09 03:50:10;;;;;;;18.80;11.60;;;;;;;-2.26;58.11;104171.69;106086;1268;1002606;-58
2023/02/09 03:52:38;;;;;;;19.20;11.40;;;;;;;-2.25;57.78;104173.25;106788;1268;25424;-57
2023/02/09 03:55:07;;;;;;;17.20;10.80;;;;;;;-2.26;57.66;104178.60;106033;1268;1003141;-57
2023/02/09 03:57:35;;;;;;;16.80;9.60;;;;;;;-2.25;57.76;104182.40;106657;1269;23344;-57
2023/02/09 04:00:05;;;;;;;17.50;10.40;;;;;;;-2.25;57.92;104179.19;106756;1273;25348;-57
2023/02/09 04:02:39;;;;;;;16.20;10.50;;;;;;;-2.25;58.06;104177.88;106766;1268;25465;-57
2023/02/09 04:05:07;;;;;;;15.00;10.40;;;;;;;-2.23;58.04;104178.17;106914;1268;25334;-57
2023/02/09 04:07:40;;;;;;;18.30;12.10;;;;;;;-2.22;57.95;104177.63;106829;1271;24220;-57
2023/02/09 04:13:33;;;;;;;16.60;10.80;;;;;;;-2.19;57.71;104174.78;103780;1299;544851;-59
2023/02/09 04:16:02;;;;;;;17.30;10.80;;;;;;;-2.22;57.80;104176.97;106122;1288;25379;-58
2023/02/09 04:18:31;;;;;;;14.90;10.70;;;;;;;-2.23;57.50;104182.64;105800;1283;24340;-58
2023/02/09 04:20:59;;;;;;;14.60;10.30;;;;;;;-2.22;57.70;104183.91;106184;1283;25355;-58
2023/02/09 04:23:28;;;;;;;17.50;11.60;;;;;;;-2.22;57.62;104184.90;106125;1285;25351;-58
2023/02/09 04:25:57;;;;;;;19.60;10.90;;;;;;;-2.24;57.75;104190.38;106184;1285;25379;-58
2023/02/09 04:28:26;;;;;;;21.40;11.70;;;;;;;-2.24;57.65;104190.18;105095;1285;1003000;-58
2023/02/09 04:30:55;;;;;;;19.60;11.30;;;;;;;-2.24;57.76;104193.91;106327;1279;22532;-58
2023/02/09 04:33:23;;;;;;;16.90;10.50;;;;;;;-2.26;57.69;104194.60;105911;1280;22532;-58
2023/02/09 04:35:52;;;;;;;16.90;10.60;;;;;;;-2.27;57.96;104187.71;106705;1276;25357;-58
2023/02/09 04:38:21;;;;;;;17.70;11.30;;;;;;;-2.27;57.82;104192.35;106673;1263;25375;-58
2023/02/09 04:40:52;;;;;;;16.20;11.10;;;;;;;-2.26;57.95;104197.48;106051;1273;1003422;-58
2023/02/09 04:43:21;;;;;;;;;;;;;;;-2.27;57.94;104196.71;106770;1277;24230;-58
2023/02/09 04:45:49;;;;;;;18.90;11.80;;;;;;;-2.28;58.20;104199.54;106765;1273;25338;-58
2023/02/09 04:48:19;;;;;;;19.00;11.80;;;;;;;-2.30;58.21;104207.21;106115;1276;1003636;-58
2023/02/09 04:50:47;;;;;;;16.20;11.10;;;;;;;-2.31;58.45;104213.56;106465;1278;25391;-58
2023/02/09 04:53:16;;;;;;;16.90;10.80;;;;;;;-2.32;58.62;104217.02;106791;1274;25356;-58
2023/02/09 04:55:45;;;;;;;17.30;11.30;;;;;;;-2.31;58.66;104214.59;105978;1278;1003725;-58
2023/02/09 05:01:03;;;;;;;18.60;11.70;;;;;;;-2.32;58.75;104217.08;106815;1274;25366;-59
2023/02/09 05:03:32;;;;;;;16.20;11.20;;;;;;;-2.32;58.78;104216.01;106054;1270;1003031;-59
2023/02/09 05:06:02;;;;;;;19.90;12.30;;;;;;;-2.33;58.39;104214.42;106374;1273;25561;-59
2023/02/09 05:08:30;;;;;;;20.30;10.90;;;;;;;-2.34;58.50;104220.47;106652;1271;25412;-59
2023/02/09 05:10:59;;;;;;;15.90;11.90;;;;;;;-2.35;58.73;104219.66;105971;1278;1003599;-59
2023/02/09 05:13:27;;;;;;;20.70;12.20;;;;;;;-2.36;58.81;104222.12;106843;1272;25344;-59
2023/02/09 05:15:56;;;;;;;19.80;11.40;;;;;;;-2.37;58.77;104222.70;106840;1273;24285;-58
2023/02/09 05:18:24;;;;;;;20.90;11.90;;;;;;;-2.38;58.69;104218.18;106047;1272;1016127;-59
2023/02/09 05:20:53;;;;;;;17.80;12.00;;;;;;;-2.38;58.86;104214.69;106437;1276;23904;-58
2023/02/09 05:23:21;;;;;;;22.10;11.70;;;;;;;-2.38;58.80;104217.55;106704;1272;26521;-59
2023/02/09 05:25:49;;;;;;;18.50;11.80;;;;;;;-2.38;58.59;104214.29;106737;1274;25346;-59
2023/02/09 05:28:18;;;;;;;22.60;13.40;;;;;;;-2.40;58.60;104214.69;105692;1278;1002917;-59
2023/02/09 05:30:52;;;;;;;22.20;12.60;;;;;;;-2.40;58.70;104217.04;106021;1273;1002427;-58
2023/02/09 05:33:21;;;;;;;19.90;11.80;;;;;;;-2.39;58.77;104226.42;106748;1272;24221;-59
2023/02/09 05:35:51;;;;;;;18.90;11.20;;;;;;;-2.39;58.72;104228.15;106686;1278;22524;-59
2023/02/09 05:38:19;;;;;;;18.50;11.70;;;;;;;-2.39;58.73;104230.02;106720;1273;23868;-59
2023/02/09 05:40:48;;;;;;;18.50;11.80;;;;;;;-2.38;58.54;104231.60;106684;1276;25365;-59
2023/02/09 05:43:17;;;;;;;18.80;12.20;;;;;;;-2.39;58.65;104235.66;106693;1273;24344;-58
2023/02/09 05:45:45;;;;;;;18.70;12.30;;;;;;;-2.40;58.73;104236.92;106305;1276;25842;-58
2023/02/09 05:48:14;;;;;;;19.20;12.40;;;;;;;-2.39;58.63;104234.80;105706;1274;1003118;-58
2023/02/09 05:50:42;;;;;;;16.90;11.20;;;;;;;-2.37;58.55;104232.11;106619;1273;25458;-59
2023/02/09 05:53:12;;;;;;;16.10;10.80;;;;;;;-2.37;58.79;104236.16;106603;1273;25243;-58
2023/02/09 05:55:42;;;;;;;16.80;11.70;;;;;;;-2.38;58.44;104235.40;106621;1265;24318;-59
2023/02/09 05:58:11;;;;;;;17.20;12.00;;;;;;;-2.38;58.25;104238.99;105497;1278;1003093;-59
2023/02/09 06:00:39;;;;;;;18.70;11.40;;;;;;;-2.37;58.41;104233.41;106585;1277;24222;-58
2023/02/09 06:03:08;;;;;;;19.90;12.70;;;;;;;-2.36;58.49;104239.66;106325;1278;24205;-58
2023/02/09 06:05:37;;;;;;;21.90;12.30;;;;;;;-2.32;58.79;104244.63;106975;1254;25583;-58
2023/02/09 06:08:05;;;;;;;17.50;11.20;;;;;;;-2.24;58.49;104240.73;107057;1273;25389;-60
2023/02/09 06:10:34;;;;;;;19.20;11.70;;;;;;;-2.15;58.50;104236.23;107026;1267;25382;-58
2023/02/09 06:13:02;;;;;;;16.20;11.50;;;;;;;-2.04;58.07;104229.70;106679;1267;25356;-58
2023/02/09 06:15:31;;;;;;;17.70;11.30;;;;;;;-1.93;57.95;104232.81;106382;1268;1002883;-58
2023/02/09 06:18:01;;;;;;;17.30;12.20;;;;;;;-1.83;57.76;104237.56;106124;1273;1003084;-58
2023/02/09 06:20:30;;;;;;;16.40;11.00;;;;;;;-1.72;57.38;104240.04;107094;1272;25389;-58
2023/02/09 06:22:59;;;;;;;14.60;10.40;;;;;;;-1.62;57.35;104241.21;106765;1272;25344;-58
2023/02/09 06:25:27;;;;;;;18.30;11.90;;;;;;;-1.49;57.21;104235.81;106844;1267;22556;-59
2023/02/09 06:27:56;;;;;;;18.50;12.30;;;;;;;-1.38;56.88;104241.98;106108;1272;1002882;-58
2023/02/09 06:30:25;;;;;;;18.90;12.20;;;;;;;-1.30;56.52;104248.43;106823;1272;22547;-58
2023/02/09 06:32:53;;;;;;;19.20;12.40;;;;;;;-1.23;56.44;104249.19;107032;1267;25411;-59
2023/02/09 06:35:21;;;;;;;20.00;12.40;;;;;;;-1.17;56.41;104251.38;107003;1274;23902;-58
2023/02/09 06:37:50;;;;;;;16.90;10.60;;;;;;;-1.11;56.23;104250.67;106768;1273;22593;-58
2023/02/09 06:40:19;;;;;;;20.60;11.80;;;;;;;-1.06;55.99;104245.21;107046;1267;25436;-58
2023/02/09 06:42:48;;;;;;;18.70;11.60;;;;;;;-0.98;56.00;104246.49;107078;1268;22621;-58
2023/02/09 06:45:16;;;;;;;18.40;12.10;;;;;;;-0.91;55.95;104248.09;106824;1273;25411;-59
2023/02/09 06:47:45;;;;;;;18.30;12.70;;;;;;;-0.84;55.78;104249.70;107044;1267;25363;-58
2023/02/09 06:50:15;;;;;;;19.00;12.00;;;;;;;-0.75;55.64;104253.95;106054;1267;1003239;-59
2023/02/09 06:52:44;;;;;;;19.80;12.90;;;;;;;-0.69;55.36;104255.00;106840;1274;25287;-58
2023/02/09 06:55:13;;;;;;;18.80;11.80;;;;;;;-0.64;55.22;104253.52;107083;1267;25456;-58
2023/02/09 06:57:41;;;;;;;19.70;11.90;;;;;;;-0.61;54.96;104257.86;106423;1267;1002935;-58
2023/02/09 07:00:11;;;;;;;18.60;11.10;;;;;;;-0.57;54.95;104260.73;106889;1272;22521;-58
2023/02/09 07:02:43;;;;;;;17.90;11.50;;;;;;;-0.55;54.74;104263.81;107093;1267;22642;-58
2023/02/09 07:05:12;;;;;;;18.50;11.90;;;;;;;-0.55;54.72;104265.47;106094;1272;1003535;-58
2023/02/09 07:07:41;;;;;;;19.30;13.30;;;;;;;-0.57;54.52;104270.46;106133;1272;1003110;-58
2023/02/09 07:10:14;;;;;;;20.30;12.80;;;;;;;-0.63;54.83;104272.53;106871;1272;25321;-57
2023/02/09 07:12:42;;;;;;;21.70;13.00;;;;;;;-0.64;54.75;104279.40;107099;1267;22660;-58
2023/02/09 07:15:12;;;;;;;23.40;13.80;;;;;;;-0.70;54.53;104276.23;107035;1267;25607;-58
2023/02/09 07:17:42;;;;;;;;;;;;;;;-0.79;54.59;104274.48;106879;1271;22514;-58
2023/02/09 07:20:11;;;;;;;18.50;12.20;;;;;;;-0.89;54.81;104272.48;107161;1267;25532;-58
2023/02/09 07:22:40;;;;;;;20.50;13.00;;;;;;;-0.95;55.18;104267.39;106384;1261;1003154;-58
2023/02/09 07:25:08;;;;;;;21.50;12.40;;;;;;;-0.98;55.31;104268.84;106988;1267;23163;-58
2023/02/09 07:27:37;;;;;;;18.10;12.50;;;;;;;-0.98;55.58;104268.32;107065;1267;25369;-57
2023/02/09 07:30:06;;;;;;;23.10;13.60;;;;;;;-0.96;55.40;104266.73;107102;1267;25372;-58
2023/02/09 07:32:37;;;;;;;24.50;14.80;;;;;;;-0.97;55.32;104267.21;105987;1273;1003182;-58
2023/02/09 07:35:05;;;;;;;23.60;15.40;;;;;;;-0.99;55.48;104264.64;106278;1267;1003475;-57
2023/02/09 07:37:34;;;;;;;28.30;20.10;;;;;;;-1.00;55.52;104266.31;107080;1267;25401;-57
2023/02/09 07:40:03;;;;;;;24.10;16.60;;;;;;;-0.97;55.70;104267.41;106119;1267;1003262;-57
2023/02/09 07:42:31;;;;;;;23.60;14.90;;;;;;;-0.94;55.63;104261.14;106839;1274;25362;-58
2023/02/09 07:45:02;;;;;;;21.50;13.80;;;;;;;-0.92;55.89;104258.58;107027;1267;25446;-58
2023/02/09 07:47:30;;;;;;;23.60;13.90;;;;;;;-0.88;55.79;104255.67;106368;1267;1002921;-58
2023/02/09 07:49:59;;;;;;;20.10;13.60;;;;;;;-0.86;55.75;104255.99;107025;1271;25407;-58
2023/02/09 07:52:27;;;;;;;20.90;13.60;;;;;;;-0.82;55.93;104260.24;107079;1270;25411;-58
2023/02/09 07:54:56;;;;;;;19.60;13.00;;;;;;;-0.77;55.98;104259.07;107125;1267;23161;-58
2023/02/09 07:57:26;;;;;;;19.70;12.80;;;;;;;-0.72;55.99;104253.33;106781;1267;25344;-58
2023/02/09 07:59:55;;;;;;;17.70;11.50;;;;;;;-0.65;55.89;104253.73;106256;1267;1003641;-57
2023/02/09 08:02:35;;;;;;;20.90;14.10;;;;;;;-0.61;55.71;104254.11;107066;1267;25404;-58
2023/02/09 08:05:06;;;;;;;26.80;16.70;;;;;;;-0.59;55.39;104253.09;106726;1275;22629;-57
2023/02/09 08:07:35;;;;;;;17.20;10.80;;;;;;;-0.56;55.43;104253.29;107052;1267;22527;-58
2023/02/09 08:10:04;;;;;;;19.40;13.80;;;;;;;-0.52;55.26;104252.91;106206;1270;1003598;-58
2023/02/09 08:15:20;;;;;;;18.70;12.30;;;;;;;-0.42;55.18;104241.60;107027;1267;25380;-57
2023/02/09 08:17:49;;;;;;;21.00;12.80;;;;;;;-0.37;54.95;104237.60;107065;1267;25325;-58
2023/02/09 08:20:19;;;;;;;23.30;12.30;;;;;;;-0.31;54.84;104238.08;106355;1267;1003817;-58
2023/02/09 08:22:49;;;;;;;21.40;13.80;;;;;;;-0.26;54.60;104233.02;106864;1267;23868;-58
2023/02/09 08:25:19;;;;;;;19.10;12.50;;;;;;;-0.22;54.33;104231.61;107097;1267;22533;-58
2023/02/09 08:27:47;;;;;;;19.50;12.10;;;;;;;-0.17;54.31;104233.41;106892;1270;24289;-58
2023/02/09 08:30:19;;;;;;;19.40;12.10;;;;;;;-0.11;54.32;104231.62;107195;1267;25382;-58
2023/02/09 08:32:48;;;;;;;18.60;13.00;;;;;;;-0.04;54.11;104234.23;106048;1267;1003586;-58
2023/02/09 08:35:17;;;;;;;23.70;13.50;;;;;;;0.04;53.81;104231.37;106365;1268;1003781;-58
2023/02/09 08:37:45;;;;;;;18.80;12.10;;;;;;;0.09;53.64;104232.11;107044;1267;25522;-57
2023/02/09 08:40:14;;;;;;;20.20;11.80;;;;;;;0.16;53.52;104227.86;107145;1267;25379;-57
2023/02/09 08:42:43;;;;;;;15.20;10.70;;;;;;;0.24;53.09;104224.03;106304;1267;1003258;-58
2023/02/09 08:45:12;;;;;;;17.30;12.00;;;;;;;0.30;53.13;104227.05;107045;1267;25532;-58
2023/02/09 08:47:41;;;;;;;22.60;13.10;;;;;;;0.36;52.98;104227.48;107115;1267;25415;-58
2023/02/09 08:50:10;;;;;;;19.70;11.80;;;;;;;0.41;52.65;104230.98;106772;1272;25369;-58
2023/02/09 08:52:38;;;;;;;16.10;11.80;;;;;;;0.46;52.50;104226.91;106086;1267;1003157;-58
2023/02/09 08:55:07;;;;;;;20.30;12.20;;;;;;;0.52;52.31;104224.98;106980;1267;23342;-58
2023/02/09 08:57:36;;;;;;;20.00;12.70;;;;;;;0.58;52.15;104227.63;106717;1275;22526;-58
2023/02/09 09:00:13;;;;;;;18.80;12.20;;;;;;;0.63;51.95;104229.00;106043;1267;1003130;-57
2023/02/09 09:02:41;;;;;;;15.40;10.30;;;;;;;0.68;52.07;104229.76;107078;1253;25597;-58
2023/02/09 09:05:11;;;;;;;14.60;10.50;;;;;;;0.76;51.83;104230.33;106795;1267;25386;-58
2023/02/09 09:07:40;;;;;;;15.20;11.00;;;;;;;0.84;51.78;104232.47;105939;1275;1002894;-57
2023/02/09 09:10:12;;;;;;;16.40;10.90;;;;;;;0.92;51.42;104233.41;106281;1267;1002978;-58
2023/02/09 09:12:42;;;;;;;17.10;11.00;;;;;;;0.99;51.13;104233.61;106064;1272;1003163;-57
2023/02/09 09:15:10;;;;;;;17.60;10.40;;;;;;;1.07;50.94;104230.90;106376;1267;1003369;-58
2023/02/09 09:17:39;;;;;;;14.80;10.20;;;;;;;1.07;50.55;104224.91;106765;1267;25385;-58
2023/02/09 09:20:08;;;;;;;15.30;10.10;;;;;;;1.05;50.88;104219.17;107066;1267;25379;-58
2023/02/09 09:22:37;;;;;;;14.90;9.70;;;;;;;1.11;50.66;104209.69;107021;1267;22538;-57
2023/02/09 09:25:06;;;;;;;14.40;10.50;;;;;;;1.18;50.29;104202.65;107003;1267;25491;-58
2023/02/09 09:27:35;;;;;;;15.60;8.60;;;;;;;1.24;49.98;104199.88;106812;1267;22536;-57
2023/02/09 09:30:04;;;;;;;14.60;10.10;;;;;;;1.40;49.41;104194.30;106272;1267;1003481;-58
2023/02/09 09:32:33;;;;;;;13.50;9.10;;;;;;;1.46;49.37;104190.30;106712;1275;24322;-58
2023/02/09 09:35:02;;;;;;;14.90;9.60;;;;;;;1.54;49.37;104189.48;106337;1267;1003037;-58
2023/02/09 09:37:31;;;;;;;14.10;9.10;;;;;;;1.62;49.41;104185.08;107079;1267;25308;-58
2023/02/09 09:40:00;;;;;;;13.80;9.10;;;;;;;1.71;49.33;104180.89;106445;1267;1003041;-58
2023/02/09 09:42:50;;;;;;;10.20;7.30;;;;;;;1.76;49.15;104173.89;107081;1267;25389;-58
2023/02/09 09:45:20;;;;;;;9.70;6.20;;;;;;;1.84;48.82;104172.90;107065;1267;25397;-58
2023/02/09 09:47:49;;;;;;;8.50;6.00;;;;;;;1.91;48.46;104169.76;106828;1267;22527;-58
2023/02/09 09:50:19;;;;;;;10.30;6.00;;;;;;;1.95;48.52;104168.02;106022;1267;1003059;-58
2023/02/09 09:53:06;;;;;;;7.20;6.10;;;;;;;2.02;48.55;104168.47;106037;1267;1003658;-59
2023/02/09 09:55:34;;;;;;;8.00;5.50;;;;;;;2.10;48.09;104166.79;106280;1267;1003516;-58
2023/02/09 09:58:04;;;;;;;9.50;6.20;;;;;;;2.15;47.45;104165.95;106883;1274;25353;-58
2023/02/09 10:00:38;;;;;;;7.60;5.10;;;;;;;2.17;47.04;104166.09;106920;1275;24257;-59
2023/02/09 10:03:15;;;;;;;7.80;5.50;;;;;;;2.18;46.80;104167.14;107104;1267;22744;-58
2023/02/09 10:05:47;;;;;;;7.90;6.00;;;;;;;2.20;46.73;104164.02;106923;1264;24286;-58
2023/02/09 10:08:52;;;;;;;10.20;5.30;;;;;;;2.22;46.91;104160.90;106405;1267;1003542;-58
2023/02/09 10:11:34;;;;;;;8.00;5.20;;;;;;;2.29;47.04;104152.00;105549;1279;1002922;-58
2023/02/09 10:14:03;;;;;;;7.90;5.80;;;;;;;2.37;47.08;104151.14;105635;1280;1002566;-58
2023/02/09 10:16:33;;;;;;;8.20;5.30;;;;;;;2.44;46.88;104148.17;106407;1275;26607;-58
2023/02/09 10:19:04;;;;;;;8.90;6.10;;;;;;;2.51;46.59;104148.31;106406;1275;22547;-58
2023/02/09 10:21:34;;;;;;;8.60;5.90;;;;;;;2.59;46.68;104147.45;106413;1275;22519;-58
2023/02/09 10:24:11;;;;;;;6.80;5.50;;;;;;;2.65;46.73;104146.27;105656;1275;1003611;-58
2023/02/09 10:26:41;;;;;;;9.50;6.10;;;;;;;2.70;46.52;104147.98;106410;1278;22536;-58
2023/02/09 10:29:10;;;;;;;9.00;5.10;;;;;;;2.74;46.44;104148.23;105542;1275;1002850;-58
2023/02/09 10:31:49;;;;;;;11.00;6.10;;;;;;;2.77;46.29;104146.36;105516;1275;1002830;-58
2023/02/09 10:34:22;;;;;;;7.60;5.00;;;;;;;2.80;46.38;104148.67;106430;1275;25420;-59
2023/02/09 10:36:52;;;;;;;8.60;5.20;;;;;;;2.81;46.44;104145.48;106334;1275;24287;-59
2023/02/09 10:39:26;;;;;;;7.50;5.40;;;;;;;2.85;46.46;104144.02;105668;1275;1003398;-58
2023/02/09 10:41:54;;;;;;;7.10;5.10;;;;;;;2.90;46.02;104137.60;106372;1275;22596;-58
2023/02/09 10:44:29;;;;;;;7.20;4.90;;;;;;;2.95;46.35;104132.63;105590;1275;1003070;-59
2023/02/09 10:47:19;;;;;;;7.60;4.60;;;;;;;3.02;46.20;104128.64;106368;1280;22542;-58
2023/02/09 10:49:52;;;;;;;5.40;4.30;;;;;;;3.08;45.77;104121.80;106929;1275;25440;-58
2023/02/09 10:52:22;;;;;;;6.00;4.80;;;;;;;3.11;45.92;104116.48;107047;1267;22534;-58
2023/02/09 10:54:55;;;;;;;5.90;4.60;;;;;;;3.15;45.75;104111.25;107086;1267;25441;-59
2023/02/09 10:57:24;;;;;;;7.40;4.90;;;;;;;3.20;45.80;104106.59;107088;1267;25387;-58
2023/02/09 10:59:54;;;;;;;7.00;4.80;;;;;;;3.24;45.96;104108.61;106858;1272;25376;-58
2023/02/09 11:02:33;;;;;;;8.30;5.70;;;;;;;3.30;45.96;104102.58;107072;1267;22530;-58
2023/02/09 11:05:22;;;;;;;5.80;4.40;;;;;;;3.36;46.16;104101.20;106343;1267;1003768;-58
2023/02/09 11:07:55;;;;;;;7.00;4.40;;;;;;;3.40;45.69;104097.00;107066;1267;22763;-59
2023/02/09 11:10:26;;;;;;;6.40;4.50;;;;;;;3.45;45.44;104097.14;107168;1267;25341;-58
2023/02/09 11:12:54;;;;;;;6.50;4.40;;;;;;;3.49;45.46;104095.84;106865;1272;22668;-58
2023/02/09 11:15:25;;;;;;;6.00;4.20;;;;;;;3.54;45.40;104092.88;106298;1267;1015616;-58
2023/02/09 11:18:01;;;;;;;5.90;4.00;;;;;;;3.57;45.26;104092.56;107037;1275;25403;-58
2023/02/09 11:20:39;;;;;;;6.10;3.90;;;;;;;3.61;45.12;104092.46;107179;1267;25595;-58
2023/02/09 11:23:32;;;;;;;6.20;4.00;;;;;;;3.66;45.25;104095.31;107061;1267;24403;-58
2023/02/09 11:26:07;;;;;;;4.60;3.40;;;;;;;3.70;44.55;104094.68;106043;1269;1003717;-58
2023/02/09 11:29:01;;;;;;;5.30;4.00;;;;;;;3.73;44.50;104094.73;107135;1269;22527;-59
2023/02/09 11:31:45;;;;;;;6.00;4.00;;;;;;;3.78;44.74;104097.24;107018;1267;25430;-58
2023/02/09 11:34:26;;;;;;;6.60;4.20;;;;;;;3.82;44.77;104090.98;107133;1267;22672;-58